Terminal Aerodrome Forecast
Issued by NWS

Home | Current Version | Previous Version | Text Only | Print | Product List | Glossary Off
Versions: 1 2 3 4 5 6 7 8 9 10 11 12 13 14 15

000
FTUS43 KBIS 251131
TAFDIK
TAF
KDIK 251131Z 2512/2612 06005KT P6SM VCSH FEW020 BKN080
     FM251400 05006KT P6SM -SHRA BKN015
     FM251700 01006KT P6SM -SHRA OVC015
     FM251900 33008KT P6SM -SHRA VCTS OVC015CB
     FM252200 31010KT P6SM OVC025
     FM260200 29008KT P6SM SCT070=

USA.gov is the U.S. government's official web portal to all federal, state and local government web resources and services.